Suva, Fiji
Current Conditions -  °F | °C
As of 1:00 PM on Sunday 21 Dec 2014 (Local Time) from NFNA Reporting Station
Broken Clouds Broken Clouds  
Wind Chill: 84°   Ceiling: 2000
Heat Index: 92°   Visibility: 25mi
Dew Point: 75°   Wind: 17mph
Humidity: 74%   Direction: 110°ESE
Pressure: 29.77"   Gusts: NA
Location:  18.13°S, 178.43°E
Report Text: NFNA 210100Z 11015KT 40KM BKN020 BKN048 29/24 Q1008 RMK RR NIL
Loading
Personal Weather Stations






























Interactive Weather Map New forecast layout! Learn more

10-Day Weather Forecast

Advertisements
Track Severe Weather on mobile